Columbus, OH (43226)

7:51 PM EDT on July 24, 2016 (GMT -0400)
Edgewater Subdivision - K8CMH | | Change Station
Active Advisory: Heat Advisory Active Notice: Public Information Statement

Elev 966 ft 39.99 °N, 83.16 °W | Updated 7 minutes ago

Clear
Clear
90.1 °F
Feels Like 99 °F
N
0.0
Wind Variable Wind from ESE

Today
High -- | Low -- °F
--% Chance of Precip.
Yesterday
High -- | Low -- °F
Precip. -- in
Pressure 29.99 in
Visibility 10.0 miles
Clouds Clear
Heat Index 99 °F
Dew Point 73 °F
Humidity 58%
Rainfall 0.00 in
Snow Depth Not available.
6:24 AM 8:53 PM
Waning Gibbous, 72% visible
METAR KTZR 242335Z AUTO 00000KT 10SM CLR 29/24 A2999 RMK AO2 T02900237
Pressure 29.99 in
Visibility 10.0 miles
Clouds Clear
Heat Index 99 °F
Dew Point 73 °F
Humidity 58%
Rainfall 0.00 in
Snow Depth Not available.
6:24 AM 8:53 PM
Waning Gibbous, 72% visible
METAR KTZR 242335Z AUTO 00000KT 10SM CLR 29/24 A2999 RMK AO2 T02900237

10-Day Weather Forecast

Almanac

Astronomy

Jul. 24, 2016 Rise Set
Actual Time
Civil Twilight
Nautical Twilight
Astronomical Twilight
Moon
Length of Visible Light
Length of Day
Tomorrow will be .
, % of the Moon is Illuminated

Today's Extremes

State Highs State Lows

Community

WunderPhotos

Upload Photos

1,927,207 photos uploaded!

WunderBlog® & News

Nearby

Air Quality

  Air Quality AQ Index Pollutant
Not available.

Snow Depth

Station Depth Elevation

Earthquake Activity

City Distance Mag. Time & Date
Minimum magnitude displayed is 2.5.

Coastal Water Temperatures

Place Temperature

Stations

Nearby Weather Stations

Station Location Temp. Windchill Dew Point Humidity Wind Precip. Elev Updated Type
                   

Watches & Warnings

Heat Advisory
Issued: 7:45 PM EDT Jul. 24, 2016 – National Weather Service

... Heat advisory is cancelled...

The National Weather Service in Wilmington has cancelled the heat
advisory.

Temperatures will begin to decrease this evening therefore the
heat advisory has been cancelled. Heat index values in the 90s
will still be possible the next couple of hours across some
locations.